Time;durP1;ratioP1;P1;durP2;ratioP2;P2;SDS_P1;SDS_P2;PMS_P1;PMS_P2;Temp;Humidity;BMP_temperature;BMP_pressure;BME280_temperature;BME280_humidity;BME280_pressure;Samples;Min_cycle;Max_cycle;Signal;HPM_P1;HPM_P2
2022/03/14 00:01:11;;;;;;;15.77;11.30;;;5.80;94.60;;;;;;5175819;27;20212;-51
2022/03/14 00:03:45;;;;;;;17.87;12.10;;;5.90;94.50;;;;;;5175320;27;20213;-51
2022/03/14 00:06:17;;;;;;;14.33;11.03;;;5.80;94.60;;;;;;5175649;27;20225;-51
2022/03/14 00:08:46;;;;;;;17.00;12.00;;;5.80;94.40;;;;;;5175543;27;20201;-50
2022/03/14 00:11:16;;;;;;;14.43;11.13;;;5.80;94.30;;;;;;5175255;27;20318;-51
2022/03/14 00:13:46;;;;;;;16.77;12.23;;;5.80;94.20;;;;;;5174689;27;20211;-50
2022/03/14 00:16:23;;;;;;;16.53;11.40;;;5.90;94.20;;;;;;5175234;27;20251;-51
2022/03/14 00:18:53;;;;;;;15.17;11.67;;;5.90;94.00;;;;;;5167474;27;20290;-51
2022/03/14 00:21:25;;;;;;;17.73;11.97;;;6.00;94.00;;;;;;5165174;27;20202;-50
2022/03/14 00:23:54;;;;;;;15.03;11.20;;;6.00;93.90;;;;;;5174712;27;20201;-50
2022/03/14 00:26:23;;;;;;;15.03;11.07;;;5.90;93.70;;;;;;5175192;27;20223;-51
2022/03/14 00:28:51;;;;;;;25.37;17.10;;;6.00;93.50;;;;;;5174933;27;20682;-50
2022/03/14 00:31:20;;;;;;;17.70;13.17;;;6.10;93.40;;;;;;5175241;27;20404;-50
2022/03/14 00:33:48;;;;;;;15.77;11.00;;;6.10;93.40;;;;;;5166137;27;20206;-51
2022/03/14 00:36:16;;;;;;;14.13;10.67;;;6.10;93.60;;;;;;5154528;27;20568;-51
2022/03/14 00:38:46;;;;;;;13.30;10.93;;;6.10;94.60;;;;;;5154280;27;20214;-51
2022/03/14 00:41:15;;;;;;;15.70;11.27;;;6.10;94.50;;;;;;5154283;27;20207;-51
2022/03/14 00:43:43;;;;;;;18.43;12.37;;;6.10;93.90;;;;;;5153540;27;20228;-50
2022/03/14 00:46:11;;;;;;;18.40;11.87;;;6.10;93.70;;;;;;5153640;27;20706;-51
2022/03/14 00:48:39;;;;;;;15.17;10.73;;;6.20;93.70;;;;;;5153822;27;20714;-51
2022/03/14 00:51:07;;;;;;;14.90;10.90;;;6.20;93.40;;;;;;5154182;27;20202;-51
2022/03/14 00:53:36;;;;;;;15.87;11.87;;;6.20;93.40;;;;;;5153594;27;20251;-51
2022/03/14 00:56:06;;;;;;;14.10;9.83;;;6.20;93.40;;;;;;5153475;27;20222;-50
2022/03/14 00:58:35;;;;;;;15.13;10.37;;;6.20;93.20;;;;;;5153570;27;20203;-51
2022/03/14 01:01:03;;;;;;;14.10;10.00;;;6.30;93.20;;;;;;5152953;27;20202;-51
2022/03/14 01:03:32;;;;;;;14.83;10.67;;;6.30;93.60;;;;;;5152317;27;20214;-50
2022/03/14 01:06:00;;;;;;;16.43;11.13;;;6.30;93.50;;;;;;5153373;27;20283;-51
2022/03/14 01:08:28;;;;;;;13.57;10.37;;;6.30;93.40;;;;;;5160397;27;20251;-51
2022/03/14 01:10:57;;;;;;;14.37;10.53;;;6.40;93.10;;;;;;5174252;27;20254;-50
2022/03/14 01:13:26;;;;;;;13.47;10.37;;;6.40;92.70;;;;;;5172766;27;20209;-51
2022/03/14 01:15:54;;;;;;;14.37;10.67;;;6.40;92.50;;;;;;5157052;27;20218;-50
2022/03/14 01:18:23;;;;;;;13.47;9.90;;;6.40;92.50;;;;;;5156340;27;20206;-51
2022/03/14 01:20:51;;;;;;;14.53;9.47;;;6.50;92.60;;;;;;5174469;27;20224;-50
2022/03/14 01:23:19;;;;;;;12.80;9.80;;;6.50;92.60;;;;;;5173864;27;20204;-50
2022/03/14 01:25:49;;;;;;;15.47;10.23;;;6.50;92.70;;;;;;5173658;27;20247;-51
2022/03/14 01:28:17;;;;;;;13.77;10.13;;;6.50;92.60;;;;;;5167380;27;20267;-51
2022/03/14 01:30:47;;;;;;;13.47;9.57;;;6.50;92.60;;;;;;5153222;27;20269;-51
2022/03/14 01:33:15;;;;;;;12.77;9.30;;;6.50;92.60;;;;;;5152280;27;20580;-51
2022/03/14 01:35:44;;;;;;;11.67;9.20;;;6.60;92.80;;;;;;5153174;27;20222;-50
2022/03/14 01:38:12;;;;;;;11.27;9.03;;;6.60;93.00;;;;;;5152902;27;20206;-50
2022/03/14 01:40:40;;;;;;;12.27;9.53;;;6.60;93.00;;;;;;5153212;27;20210;-51
2022/03/14 01:43:08;;;;;;;11.30;9.40;;;6.60;92.70;;;;;;5152087;27;20258;-50
2022/03/14 01:45:37;;;;;;;13.57;9.77;;;6.60;92.90;;;;;;5152320;27;20216;-50
2022/03/14 01:48:06;;;;;;;16.13;9.73;;;6.60;93.00;;;;;;5152835;27;20209;-51
2022/03/14 01:50:35;;;;;;;11.97;9.20;;;6.60;93.20;;;;;;5153204;27;20194;-51
2022/03/14 01:53:03;;;;;;;14.83;10.03;;;6.60;93.50;;;;;;5152472;27;20202;-50
2022/03/14 01:55:31;;;;;;;11.93;9.27;;;6.60;93.40;;;;;;5152449;27;20333;-50
2022/03/14 01:57:59;;;;;;;14.30;10.13;;;6.60;93.60;;;;;;5152653;27;20256;-50
2022/03/14 02:00:28;;;;;;;13.67;9.87;;;6.60;93.80;;;;;;5152866;27;20205;-50
2022/03/14 02:02:57;;;;;;;13.23;9.00;;;6.60;94.30;;;;;;5152151;27;20206;-51
2022/03/14 02:05:28;;;;;;;14.40;9.27;;;6.60;94.40;;;;;;5152214;27;20232;-50
2022/03/14 02:07:57;;;;;;;12.93;9.33;;;6.50;94.10;;;;;;5155365;27;20208;-50
2022/03/14 02:10:25;;;;;;;11.07;8.80;;;6.50;94.10;;;;;;5161350;27;20206;-51
2022/03/14 02:12:53;;;;;;;12.80;9.53;;;6.60;93.90;;;;;;5151814;27;20742;-51
2022/03/14 02:15:21;;;;;;;14.73;9.17;;;6.50;94.20;;;;;;5165020;27;20224;-50
2022/03/14 02:17:49;;;;;;;12.00;9.27;;;6.50;94.10;;;;;;5160509;27;20202;-51
2022/03/14 02:20:19;;;;;;;12.57;9.70;;;6.50;94.30;;;;;;5152875;27;20208;-51
2022/03/14 02:22:47;;;;;;;12.77;9.57;;;6.50;94.30;;;;;;5151941;27;20252;-51
2022/03/14 02:25:15;;;;;;;11.40;9.30;;;6.50;94.30;;;;;;5152662;27;20218;-51
2022/03/14 02:27:44;;;;;;;12.73;9.93;;;6.50;94.20;;;;;;5152334;27;20270;-51
2022/03/14 02:30:12;;;;;;;13.40;9.10;;;6.50;94.10;;;;;;5152149;27;20552;-51
2022/03/14 02:32:42;;;;;;;10.97;9.10;;;6.50;94.10;;;;;;5151926;27;20293;-51
2022/03/14 02:35:11;;;;;;;12.53;9.50;;;6.50;94.10;;;;;;5152187;27;20251;-51
2022/03/14 02:37:41;;;;;;;12.30;9.27;;;6.50;94.00;;;;;;5152267;27;20200;-51
2022/03/14 02:40:10;;;;;;;13.20;9.50;;;6.50;93.80;;;;;;5152391;27;20232;-51
2022/03/14 02:42:38;;;;;;;11.73;9.43;;;6.50;93.70;;;;;;5151964;27;20251;-51
2022/03/14 02:45:09;;;;;;;14.23;10.23;;;6.50;93.60;;;;;;5152363;27;20225;-51
2022/03/14 02:47:38;;;;;;;12.93;9.57;;;6.60;93.60;;;;;;5152222;27;20214;-51
2022/03/14 02:50:07;;;;;;;12.50;9.67;;;6.50;93.60;;;;;;5170901;27;20208;-51
2022/03/14 02:52:35;;;;;;;14.97;10.30;;;6.50;93.70;;;;;;5172615;27;20212;-51
2022/03/14 02:55:06;;;;;;;12.87;9.27;;;6.50;93.50;;;;;;5173036;27;20263;-51
2022/03/14 02:57:34;;;;;;;13.67;10.63;;;6.50;93.50;;;;;;5175540;27;20203;-52
2022/03/14 03:00:05;;;;;;;13.63;9.83;;;6.60;93.50;;;;;;5156277;27;20250;-51
2022/03/14 03:02:35;;;;;;;12.93;9.97;;;6.60;93.30;;;;;;5156031;27;20208;-52
2022/03/14 03:05:05;;;;;;;13.30;10.30;;;6.60;93.40;;;;;;5155707;27;20227;-51
2022/03/14 03:07:35;;;;;;;14.37;11.20;;;6.60;93.50;;;;;;5156074;27;20291;-51
2022/03/14 03:10:06;;;;;;;14.37;11.17;;;6.60;95.50;;;;;;5159049;27;20200;-51
2022/03/14 03:12:36;;;;;;;16.13;12.33;;;6.60;96.40;;;;;;5176501;27;20204;-51
2022/03/14 03:15:05;;;;;;;17.07;12.70;;;6.50;98.10;;;;;;5176419;27;20227;-51
2022/03/14 03:17:34;;;;;;;15.07;11.53;;;6.50;98.20;;;;;;5176600;27;20260;-50
2022/03/14 03:20:02;;;;;;;15.23;11.50;;;6.50;97.60;;;;;;5176534;27;20636;-51
2022/03/14 03:22:30;;;;;;;13.30;9.93;;;6.50;97.70;;;;;;5175627;27;20225;-51
2022/03/14 03:24:58;;;;;;;11.90;9.37;;;6.50;97.10;;;;;;5176664;27;20205;-50
2022/03/14 03:27:28;;;;;;;12.07;9.47;;;6.40;97.20;;;;;;5176022;27;20204;-50
2022/03/14 03:29:56;;;;;;;12.30;9.17;;;6.40;96.70;;;;;;5176497;27;20204;-51
2022/03/14 03:32:24;;;;;;;14.63;10.77;;;6.40;96.40;;;;;;5175829;27;20200;-50
2022/03/14 03:34:53;;;;;;;20.30;12.57;;;6.50;96.80;;;;;;5159358;27;20684;-51
2022/03/14 03:37:21;;;;;;;14.97;11.37;;;6.50;97.20;;;;;;5155674;27;20218;-50
2022/03/14 03:39:49;;;;;;;17.40;14.50;;;6.50;98.70;;;;;;5155423;27;20262;-50
2022/03/14 03:42:18;;;;;;;21.33;14.93;;;6.50;99.30;;;;;;5155177;27;20686;-50
2022/03/14 03:44:47;;;;;;;20.20;15.30;;;6.40;99.90;;;;;;5154845;27;20250;-51
2022/03/14 03:47:15;;;;;;;21.43;15.13;;;6.40;99.90;;;;;;5155213;27;20263;-50
2022/03/14 03:49:43;;;;;;;19.00;14.57;;;6.40;99.90;;;;;;5155080;27;20280;-50
2022/03/14 03:52:11;;;;;;;18.27;14.83;;;6.40;99.90;;;;;;5154809;27;20210;-50
2022/03/14 03:54:39;;;;;;;19.37;14.80;;;6.40;99.90;;;;;;5154979;27;20205;-51
2022/03/14 03:57:07;;;;;;;17.90;12.73;;;6.40;99.90;;;;;;5154746;27;20697;-51
2022/03/14 03:59:36;;;;;;;18.00;13.77;;;6.40;99.90;;;;;;5155099;27;20203;-51
2022/03/14 04:02:06;;;;;;;17.33;12.67;;;6.30;99.90;;;;;;5154417;27;20206;-51
2022/03/14 04:04:37;;;;;;;17.93;13.50;;;6.30;99.90;;;;;;5154465;27;20198;-51
2022/03/14 04:07:08;;;;;;;17.60;14.23;;;6.30;99.90;;;;;;5154222;27;20226;-50
2022/03/14 04:09:36;;;;;;;18.43;14.40;;;6.20;99.90;;;;;;5171458;27;20229;-50
2022/03/14 04:12:05;;;;;;;18.73;13.83;;;6.20;99.90;;;;;;5154584;27;20206;-51
2022/03/14 04:14:33;;;;;;;18.30;13.60;;;6.20;99.90;;;;;;5154145;27;20249;-50
2022/03/14 04:17:02;;;;;;;16.90;13.47;;;6.20;99.90;;;;;;5154822;27;20257;-50
2022/03/14 04:19:36;;;;;;;19.77;13.43;;;6.30;99.90;;;;;;5154517;27;20210;-50
2022/03/14 04:22:04;;;;;;;16.63;13.67;;;6.20;99.90;;;;;;5154583;27;20207;-51
2022/03/14 04:24:35;;;;;;;17.53;12.70;;;6.30;99.90;;;;;;5154773;27;20624;-50
2022/03/14 04:27:04;;;;;;;17.37;13.07;;;6.30;99.90;;;;;;5153690;27;20606;-51
2022/03/14 04:29:32;;;;;;;15.00;12.47;;;6.30;99.90;;;;;;5154471;27;20206;-50
2022/03/14 04:32:01;;;;;;;14.57;12.40;;;6.20;99.90;;;;;;5153991;27;20260;-51
2022/03/14 04:34:31;;;;;;;17.83;12.90;;;6.30;99.90;;;;;;5154183;27;20238;-51
2022/03/14 04:37:00;;;;;;;16.47;12.30;;;6.30;99.90;;;;;;5154008;27;20642;-51
2022/03/14 04:39:28;;;;;;;18.47;13.23;;;6.30;99.90;;;;;;5154132;27;20205;-51
2022/03/14 04:41:56;;;;;;;18.30;13.30;;;6.30;99.90;;;;;;5153999;27;20206;-51
2022/03/14 04:44:24;;;;;;;19.23;13.07;;;6.30;99.90;;;;;;5153757;27;20206;-51
2022/03/14 04:46:53;;;;;;;19.80;14.33;;;6.20;99.90;;;;;;5154227;27;20274;-51
2022/03/14 04:49:21;;;;;;;16.53;12.97;;;6.20;99.90;;;;;;5153708;27;20298;-51
2022/03/14 04:51:51;;;;;;;17.43;13.53;;;6.20;99.90;;;;;;5164383;27;20236;-51
2022/03/14 04:54:19;;;;;;;18.17;13.70;;;6.30;99.90;;;;;;5162722;27;20737;-51
2022/03/14 04:56:47;;;;;;;20.17;15.13;;;6.30;99.90;;;;;;5173547;27;20682;-51
2022/03/14 04:59:15;;;;;;;19.87;15.23;;;6.30;99.90;;;;;;5174199;27;20247;-51
2022/03/14 05:01:43;;;;;;;22.93;15.93;;;6.30;99.90;;;;;;5163775;27;20204;-51
2022/03/14 05:04:12;;;;;;;20.23;15.63;;;6.30;99.90;;;;;;5161857;27;20221;-51
2022/03/14 05:06:40;;;;;;;19.07;15.70;;;6.30;99.90;;;;;;5173251;27;20252;-51
2022/03/14 05:09:09;;;;;;;23.83;16.60;;;6.30;99.90;;;;;;5174007;27;20947;-51
2022/03/14 05:11:38;;;;;;;21.50;15.63;;;6.30;99.90;;;;;;5174456;27;20197;-51
2022/03/14 05:14:09;;;;;;;21.53;16.13;;;6.30;99.90;;;;;;5173931;27;20204;-51
2022/03/14 05:16:37;;;;;;;23.07;17.50;;;6.30;99.90;;;;;;5174022;27;20682;-50
2022/03/14 05:19:05;;;;;;;22.33;16.90;;;6.30;99.90;;;;;;5161825;27;20204;-50
2022/03/14 05:21:34;;;;;;;21.43;15.83;;;6.30;99.90;;;;;;5173950;27;20205;-50
2022/03/14 05:24:02;;;;;;;23.10;17.50;;;6.30;99.90;;;;;;5173585;27;20213;-51
2022/03/14 05:26:31;;;;;;;24.60;18.73;;;6.30;99.90;;;;;;5173735;27;20220;-51
2022/03/14 05:28:59;;;;;;;23.87;17.80;;;6.30;99.90;;;;;;5169638;27;20623;-51
2022/03/14 05:31:27;;;;;;;21.33;17.13;;;6.30;99.90;;;;;;5172935;27;20616;-51
2022/03/14 05:33:56;;;;;;;23.87;17.43;;;6.30;99.90;;;;;;5158724;27;20209;-51
2022/03/14 05:36:24;;;;;;;23.40;17.97;;;6.30;99.90;;;;;;5173340;27;20223;-51
2022/03/14 05:38:52;;;;;;;26.53;18.73;;;6.30;99.90;;;;;;5173988;27;20433;-51
2022/03/14 05:41:21;;;;;;;25.93;18.37;;;6.30;99.90;;;;;;5169685;27;20209;-48
2022/03/14 05:43:50;;;;;;;24.23;18.17;;;6.30;99.90;;;;;;5159333;27;20194;-51
2022/03/14 05:46:19;;;;;;;24.30;18.10;;;6.30;99.90;;;;;;5153111;27;20269;-51
2022/03/14 05:48:47;;;;;;;23.87;18.53;;;6.30;99.90;;;;;;5152225;27;20233;-51
2022/03/14 05:51:15;;;;;;;27.20;18.67;;;6.30;99.90;;;;;;5156629;27;20228;-51
2022/03/14 05:53:43;;;;;;;26.40;18.83;;;6.30;99.90;;;;;;5158174;27;20209;-51
2022/03/14 05:56:11;;;;;;;26.00;18.17;;;6.30;99.90;;;;;;5160973;27;20223;-51
2022/03/14 05:58:39;;;;;;;26.80;18.20;;;6.30;99.90;;;;;;5152352;27;20218;-51
2022/03/14 06:01:09;;;;;;;27.53;20.57;;;6.30;99.90;;;;;;5167556;27;20233;-51
2022/03/14 06:03:37;;;;;;;31.07;21.83;;;6.30;99.90;;;;;;5163646;27;20579;-51
2022/03/14 06:06:07;;;;;;;30.57;20.47;;;6.30;99.90;;;;;;5169694;27;20244;-51
2022/03/14 06:08:35;;;;;;;26.43;19.60;;;6.30;99.90;;;;;;5164675;27;20248;-51
2022/03/14 06:11:06;;;;;;;32.87;20.00;;;6.30;99.90;;;;;;5159317;27;20224;-51
2022/03/14 06:13:35;;;;;;;27.83;20.33;;;6.30;99.90;;;;;;5151298;27;20678;-51
2022/03/14 06:16:04;;;;;;;29.57;21.37;;;6.30;99.90;;;;;;5152102;27;20700;-51
2022/03/14 06:18:33;;;;;;;27.17;20.43;;;6.30;99.90;;;;;;5166450;27;20219;-51
2022/03/14 06:21:01;;;;;;;28.83;20.57;;;6.30;99.90;;;;;;5172819;27;20200;-50
2022/03/14 06:23:30;;;;;;;32.60;22.87;;;6.30;99.90;;;;;;5172005;27;20198;-51
2022/03/14 06:25:59;;;;;;;29.47;21.53;;;6.30;99.90;;;;;;5172796;27;20224;-51
2022/03/14 06:28:27;;;;;;;31.63;21.07;;;6.30;99.90;;;;;;5163470;27;20200;-50
2022/03/14 06:30:55;;;;;;;27.63;20.40;;;6.30;99.90;;;;;;5169887;27;20201;-51
2022/03/14 06:33:24;;;;;;;25.20;19.50;;;6.40;99.90;;;;;;5174264;27;20216;-51
2022/03/14 06:35:53;;;;;;;28.33;20.47;;;6.30;99.90;;;;;;5155941;27;20361;-51
2022/03/14 06:38:22;;;;;;;29.80;21.43;;;6.30;99.90;;;;;;5161023;27;20211;-51
2022/03/14 06:40:50;;;;;;;28.37;21.80;;;6.30;99.90;;;;;;5155706;27;20202;-51
2022/03/14 06:43:21;;;;;;;31.13;23.70;;;6.30;99.90;;;;;;5155805;27;20206;-51
2022/03/14 06:45:50;;;;;;;30.87;22.67;;;6.20;99.90;;;;;;5159533;27;20222;-51
2022/03/14 06:48:18;;;;;;;27.03;20.47;;;6.30;99.90;;;;;;5172214;27;20203;-50
2022/03/14 06:50:46;;;;;;;32.53;22.80;;;6.30;99.90;;;;;;5176874;27;20207;-51
2022/03/14 06:53:17;;;;;;;26.83;20.67;;;6.30;99.90;;;;;;5176001;27;20202;-51
2022/03/14 06:55:45;;;;;;;33.73;23.13;;;6.20;99.90;;;;;;5176480;27;20260;-51
2022/03/14 06:58:13;;;;;;;30.60;22.63;;;6.30;99.90;;;;;;5176494;27;20270;-50
2022/03/14 07:00:42;;;;;;;31.07;23.93;;;6.20;99.90;;;;;;5175761;27;20871;-51
2022/03/14 07:03:10;;;;;;;34.90;24.33;;;6.30;99.90;;;;;;5176079;27;20207;-50
2022/03/14 07:05:39;;;;;;;33.30;23.57;;;6.30;99.90;;;;;;5174636;27;20222;-50
2022/03/14 07:08:09;;;;;;;35.17;25.50;;;6.40;99.90;;;;;;5176687;27;20250;-51
2022/03/14 07:10:38;;;;;;;35.77;25.80;;;6.30;99.90;;;;;;5176470;27;20264;-50
2022/03/14 07:13:06;;;;;;;33.97;24.43;;;6.40;99.90;;;;;;5175904;27;20254;-50
2022/03/14 07:15:34;;;;;;;34.03;24.57;;;6.40;99.90;;;;;;5176391;27;20287;-50
2022/03/14 07:18:03;;;;;;;37.93;24.93;;;6.40;99.90;;;;;;5176090;27;20224;-50
2022/03/14 07:20:31;;;;;;;32.77;24.20;;;6.40;99.90;;;;;;5176711;27;20206;-50
2022/03/14 07:23:02;;;;;;;31.07;24.20;;;6.50;99.90;;;;;;5175284;27;20666;-50
2022/03/14 07:25:32;;;;;;;32.80;24.40;;;6.50;99.90;;;;;;5175620;27;20817;-51
2022/03/14 07:28:04;;;;;;;36.70;28.00;;;6.60;99.90;;;;;;5169948;27;20207;-51
2022/03/14 07:30:32;;;;;;;41.83;30.03;;;6.60;99.90;;;;;;5161117;27;20659;-50
2022/03/14 07:33:00;;;;;;;33.70;27.40;;;6.70;99.90;;;;;;5154400;27;20667;-50
2022/03/14 07:35:29;;;;;;;38.23;26.77;;;6.70;99.90;;;;;;5156237;27;20228;-50
2022/03/14 07:37:58;;;;;;;33.73;25.40;;;6.70;99.90;;;;;;5155083;27;20590;-50
2022/03/14 07:40:26;;;;;;;34.80;25.43;;;6.70;99.90;;;;;;5160710;27;20208;-51
2022/03/14 07:42:56;;;;;;;33.30;24.73;;;6.60;99.90;;;;;;5173065;27;20714;-50
2022/03/14 07:45:49;;;;;;;34.13;25.27;;;6.60;99.90;;;;;;5175816;27;20744;-50
2022/03/14 07:48:18;;;;;;;33.97;25.37;;;6.50;99.90;;;;;;5174782;27;20736;-53
2022/03/14 07:50:46;;;;;;;32.27;24.07;;;6.60;99.90;;;;;;5176136;27;20204;-53
2022/03/14 07:53:18;;;;;;;33.10;25.03;;;6.60;99.90;;;;;;5174419;27;20261;-53
2022/03/14 07:55:46;;;;;;;32.07;23.20;;;6.70;99.90;;;;;;5176053;27;20221;-51
2022/03/14 07:58:15;;;;;;;33.07;25.27;;;6.70;99.90;;;;;;5175122;27;20213;-51
2022/03/14 08:00:44;;;;;;;35.27;26.63;;;6.80;99.90;;;;;;5176096;27;20243;-50
2022/03/14 08:03:13;;;;;;;32.67;25.90;;;6.80;99.90;;;;;;5174672;27;20201;-50
2022/03/14 08:05:42;;;;;;;33.70;25.57;;;6.90;99.90;;;;;;5174307;27;20231;-53
2022/03/14 08:08:10;;;;;;;36.57;26.47;;;6.90;99.90;;;;;;5175424;27;20612;-53
2022/03/14 08:10:39;;;;;;;35.87;25.40;;;6.90;99.90;;;;;;5175493;27;20197;-53
2022/03/14 08:13:08;;;;;;;34.30;25.43;;;6.80;99.90;;;;;;5174856;27;20216;-53
2022/03/14 08:15:37;;;;;;;34.07;26.13;;;6.80;99.90;;;;;;5174339;27;20257;-53
2022/03/14 08:18:08;;;;;;;31.40;23.90;;;6.80;99.90;;;;;;5153672;27;20263;-53
2022/03/14 08:20:37;;;;;;;37.70;26.77;;;6.90;99.90;;;;;;5154052;27;20703;-53
2022/03/14 08:23:06;;;;;;;35.90;26.83;;;6.90;99.90;;;;;;5153765;27;20198;-53
2022/03/14 08:25:35;;;;;;;32.97;25.50;;;6.90;99.90;;;;;;5154542;27;20225;-53
2022/03/14 08:28:04;;;;;;;35.80;26.00;;;7.00;99.90;;;;;;5157309;27;20681;-53
2022/03/14 08:30:32;;;;;;;32.53;25.77;;;7.00;99.90;;;;;;5175375;27;20228;-53
2022/03/14 08:33:01;;;;;;;35.90;26.40;;;7.00;99.90;;;;;;5174731;27;20201;-53
2022/03/14 08:35:30;;;;;;;33.33;24.90;;;7.10;99.90;;;;;;5167573;27;20228;-53
2022/03/14 08:38:00;;;;;;;37.43;28.13;;;7.10;99.90;;;;;;5174883;27;20720;-52
2022/03/14 08:40:29;;;;;;;34.30;25.63;;;7.10;99.90;;;;;;5174502;27;20222;-53
2022/03/14 08:42:58;;;;;;;32.70;24.93;;;7.10;99.90;;;;;;5174429;27;20213;-53
2022/03/14 08:45:26;;;;;;;36.67;28.20;;;7.10;99.90;;;;;;5174212;27;20228;-53
2022/03/14 08:47:55;;;;;;;32.77;25.53;;;7.10;99.90;;;;;;5174673;27;20245;-52
2022/03/14 08:50:23;;;;;;;32.00;25.73;;;7.10;99.90;;;;;;5154356;27;20251;-53
2022/03/14 08:52:53;;;;;;;34.33;26.33;;;7.10;99.90;;;;;;5152877;27;20206;-53
2022/03/14 08:55:22;;;;;;;37.53;29.13;;;7.20;99.90;;;;;;5151222;27;20441;-53
2022/03/14 08:57:50;;;;;;;33.20;26.10;;;7.50;99.90;;;;;;5160055;27;20216;-53
2022/03/14 09:00:19;;;;;;;37.13;27.83;;;7.40;99.90;;;;;;5162388;27;20225;-53
2022/03/14 09:02:47;;;;;;;48.57;37.23;;;7.40;99.90;;;;;;5167614;27;20210;-53
2022/03/14 09:05:16;;;;;;;49.07;37.07;;;7.30;99.90;;;;;;5154193;27;20297;-53
2022/03/14 09:07:44;;;;;;;79.27;56.40;;;7.20;99.90;;;;;;5156959;27;20197;-53
2022/03/14 09:10:16;;;;;;;59.03;43.77;;;7.30;99.90;;;;;;5153316;27;20755;-53
2022/03/14 09:12:49;;;;;;;78.23;54.63;;;7.30;99.90;;;;;;5166366;27;20201;-53
2022/03/14 09:15:19;;;;;;;72.87;54.37;;;7.20;99.90;;;;;;5194543;27;20224;-53
2022/03/14 09:17:51;;;;;;;42.37;32.00;;;7.30;99.90;;;;;;5195037;27;20673;-53
2022/03/14 09:20:21;;;;;;;35.67;27.30;;;7.40;99.90;;;;;;5153978;27;20221;-53
2022/03/14 09:22:50;;;;;;;38.60;28.77;;;7.40;99.90;;;;;;5152109;27;20300;-53
2022/03/14 09:25:21;;;;;;;37.10;28.70;;;7.50;99.90;;;;;;5152929;27;20295;-53
2022/03/14 09:27:50;;;;;;;36.73;28.97;;;7.50;99.90;;;;;;5153833;27;20242;-53
2022/03/14 09:30:19;;;;;;;43.47;31.40;;;7.50;99.90;;;;;;5172576;27;20201;-53
2022/03/14 09:32:48;;;;;;;47.73;36.00;;;7.50;99.90;;;;;;5173171;27;20212;-53
2022/03/14 09:35:17;;;;;;;40.47;32.10;;;7.50;99.90;;;;;;5173309;27;20221;-49
2022/03/14 09:37:46;;;;;;;48.47;35.93;;;7.40;99.90;;;;;;5173507;27;20682;-49
2022/03/14 09:40:17;;;;;;;39.27;30.60;;;7.40;99.90;;;;;;5173380;27;20255;-49
2022/03/14 09:42:49;;;;;;;38.80;30.23;;;7.40;99.90;;;;;;5173333;27;20189;-49
2022/03/14 09:45:19;;;;;;;40.70;31.57;;;7.40;99.90;;;;;;5173104;27;20717;-48
2022/03/14 09:47:49;;;;;;;37.37;29.53;;;7.40;99.90;;;;;;5172011;27;20234;-48
2022/03/14 09:50:23;;;;;;;41.57;30.63;;;7.40;99.90;;;;;;5172795;27;20194;-51
2022/03/14 09:52:51;;;;;;;45.50;34.60;;;7.40;99.90;;;;;;5172043;27;20201;-51
2022/03/14 09:55:20;;;;;;;40.70;30.70;;;7.40;99.90;;;;;;5172372;27;20221;-51
2022/03/14 09:57:50;;;;;;;42.53;32.57;;;7.40;99.90;;;;;;5164369;27;20226;-51
2022/03/14 10:00:19;;;;;;;45.73;33.93;;;7.50;99.90;;;;;;5161056;27;20257;-51
2022/03/14 10:02:48;;;;;;;41.97;30.63;;;7.50;99.90;;;;;;5157223;27;20222;-51
2022/03/14 10:05:18;;;;;;;35.73;28.43;;;7.50;99.90;;;;;;5169387;27;20221;-51
2022/03/14 10:07:46;;;;;;;37.37;29.10;;;7.50;99.90;;;;;;5172793;27;20205;-51
2022/03/14 10:10:15;;;;;;;37.03;28.30;;;7.60;99.90;;;;;;5172600;27;20559;-51
2022/03/14 10:12:45;;;;;;;40.07;30.10;;;7.60;99.90;;;;;;5172804;27;20212;-51
2022/03/14 10:15:15;;;;;;;38.80;29.87;;;7.60;99.90;;;;;;5173009;27;20221;-51
2022/03/14 10:17:43;;;;;;;40.00;30.60;;;7.60;99.90;;;;;;5173063;27;20273;-50
2022/03/14 10:20:12;;;;;;;38.93;30.17;;;7.60;99.90;;;;;;5172961;27;20641;-50
2022/03/14 10:22:41;;;;;;;46.37;33.77;;;7.60;99.90;;;;;;5171931;27;20261;-51
2022/03/14 10:25:12;;;;;;;39.70;30.30;;;7.60;99.90;;;;;;5154351;27;20230;-50
2022/03/14 10:27:42;;;;;;;39.83;30.87;;;7.60;99.90;;;;;;5171906;27;20284;-51
2022/03/14 10:30:25;;;;;;;35.53;29.07;;;7.60;99.90;;;;;;5151512;27;20273;-51
2022/03/14 10:33:01;;;;;;;39.63;29.67;;;7.60;99.90;;;;;;5151346;27;20293;-51
2022/03/14 10:35:35;;;;;;;42.90;31.17;;;7.70;99.90;;;;;;5151734;27;20233;-51
2022/03/14 10:38:05;;;;;;;37.73;29.87;;;7.70;99.90;;;;;;5153476;27;20203;-51
2022/03/14 10:40:35;;;;;;;39.13;30.00;;;7.80;99.90;;;;;;5172646;27;20218;-51
2022/03/14 10:43:08;;;;;;;38.40;28.63;;;8.00;99.90;;;;;;5172220;27;20189;-50
2022/03/14 10:45:46;;;;;;;34.87;28.83;;;8.10;99.90;;;;;;5160052;27;20228;-51
2022/03/14 10:48:15;;;;;;;36.47;28.97;;;8.30;99.90;;;;;;5172863;27;20183;-52
2022/03/14 10:50:43;;;;;;;30.53;26.03;;;8.30;99.90;;;;;;5157067;27;20677;-51
2022/03/14 10:53:18;;;;;;;33.10;27.00;;;8.40;99.90;;;;;;5152386;27;20241;-51
2022/03/14 10:55:48;;;;;;;36.30;27.17;;;8.40;99.90;;;;;;5172257;27;20587;-51
2022/03/14 10:58:19;;;;;;;30.30;25.67;;;8.40;99.90;;;;;;5170328;27;20206;-52
2022/03/14 11:00:50;;;;;;;32.87;27.00;;;8.50;99.90;;;;;;5172120;27;20315;-51
2022/03/14 11:03:24;;;;;;;29.53;22.97;;;8.50;99.90;;;;;;5171818;27;20276;-51
2022/03/14 11:05:54;;;;;;;23.77;20.43;;;8.60;99.90;;;;;;5172002;27;20220;-51
2022/03/14 11:08:27;;;;;;;29.80;23.07;;;8.60;99.90;;;;;;5172103;27;20186;-51
2022/03/14 11:10:56;;;;;;;27.70;21.03;;;8.60;99.90;;;;;;5151616;27;20208;-51
2022/03/14 11:13:25;;;;;;;22.17;18.80;;;8.60;99.90;;;;;;5150923;27;20202;-51
2022/03/14 11:15:56;;;;;;;20.90;18.10;;;8.60;99.90;;;;;;5151827;27;20227;-50
2022/03/14 11:18:25;;;;;;;22.27;18.13;;;8.70;99.90;;;;;;5154393;27;20213;-50
2022/03/14 11:20:54;;;;;;;21.37;17.70;;;8.70;99.90;;;;;;5158856;27;20216;-50
2022/03/14 11:23:24;;;;;;;24.80;17.83;;;8.70;99.90;;;;;;5175435;27;20202;-50
2022/03/14 11:25:53;;;;;;;21.73;17.77;;;8.70;99.90;;;;;;5175726;27;20221;-51
2022/03/14 11:28:22;;;;;;;21.73;16.83;;;8.70;99.90;;;;;;5175693;27;20895;-51
2022/03/14 11:30:59;;;;;;;21.10;17.97;;;8.80;99.90;;;;;;5175722;27;20205;-51
2022/03/14 11:33:30;;;;;;;23.53;17.70;;;8.80;99.90;;;;;;5175521;27;20268;-51
2022/03/14 11:35:59;;;;;;;21.60;17.67;;;8.90;99.90;;;;;;5175505;27;20717;-51
2022/03/14 11:38:28;;;;;;;20.43;17.47;;;8.90;99.90;;;;;;5177152;27;20241;-50
2022/03/14 11:40:57;;;;;;;20.57;16.70;;;8.90;99.90;;;;;;5176795;27;20282;-50
2022/03/14 11:43:26;;;;;;;23.43;18.10;;;8.90;99.90;;;;;;5174492;27;20201;-51
2022/03/14 11:45:55;;;;;;;22.43;17.30;;;8.90;99.90;;;;;;5175588;27;20225;-51
2022/03/14 11:48:30;;;;;;;25.17;18.60;;;8.90;99.90;;;;;;5174429;27;20210;-51
2022/03/14 11:51:02;;;;;;;21.73;17.07;;;8.90;99.90;;;;;;5175646;27;20222;-51
2022/03/14 11:53:31;;;;;;;21.90;16.53;;;8.90;99.90;;;;;;5175437;27;20228;-51
2022/03/14 11:56:01;;;;;;;21.33;16.20;;;9.00;99.90;;;;;;5175183;27;20222;-51
2022/03/14 11:58:38;;;;;;;21.93;16.40;;;9.00;99.90;;;;;;5172384;27;20205;-51
2022/03/14 12:01:14;;;;;;;22.40;16.47;;;9.10;99.90;;;;;;5164868;27;20678;-51
2022/03/14 12:03:50;;;;;;;20.63;15.97;;;9.10;99.90;;;;;;5153551;27;20197;-51
2022/03/14 12:06:27;;;;;;;24.70;18.30;;;9.10;99.90;;;;;;5161761;27;20311;-51
2022/03/14 12:08:55;;;;;;;19.23;16.43;;;9.10;99.90;;;;;;5163801;27;20258;-51
2022/03/14 12:11:37;;;;;;;22.10;16.50;;;9.20;99.90;;;;;;5165127;27;20799;-52
2022/03/14 12:14:09;;;;;;;24.53;16.77;;;9.30;99.90;;;;;;5173745;27;20246;-51
2022/03/14 12:16:38;;;;;;;22.67;18.13;;;9.40;99.90;;;;;;5174172;27;20436;-51
2022/03/14 12:19:31;;;;;;;21.47;17.23;;;9.60;99.90;;;;;;5174056;27;20274;-52
2022/03/14 12:22:02;;;;;;;21.03;16.90;;;9.70;99.90;;;;;;5161620;27;20214;-51
2022/03/14 12:24:48;;;;;;;19.30;15.67;;;9.80;99.90;;;;;;5153462;27;20221;-51
2022/03/14 12:27:17;;;;;;;23.00;17.47;;;9.90;99.90;;;;;;5160459;27;20258;-50
2022/03/14 12:29:47;;;;;;;21.90;16.70;;;10.00;99.90;;;;;;5173508;27;20227;-51
2022/03/14 12:32:31;;;;;;;21.33;15.83;;;10.10;99.90;;;;;;5174094;27;20251;-50
2022/03/14 12:35:09;;;;;;;17.77;14.17;;;10.20;99.90;;;;;;5175040;27;20205;-51
2022/03/14 12:37:46;;;;;;;19.07;14.23;;;10.30;99.90;;;;;;5174230;27;20217;-50
2022/03/14 12:40:31;;;;;;;18.87;14.00;;;10.40;99.90;;;;;;5173441;27;20232;-51
2022/03/14 12:43:27;;;;;;;15.77;13.60;;;10.50;99.90;;;;;;5152320;27;20206;-51
2022/03/14 12:45:58;;;;;;;16.57;13.70;;;10.80;99.90;;;;;;5149926;27;20226;-51
2022/03/14 12:48:28;;;;;;;15.70;12.43;;;11.10;99.90;;;;;;5167976;27;20209;-51
2022/03/14 12:51:02;;;;;;;15.83;11.83;;;11.30;99.90;;;;;;5152601;27;20875;-51